Ana Sayfa
METAR-TAF:

METAR-TAF

Havaalanları :

Zvartnots Uluslararası Havalimanı

Erivan, Ermenistan

Enlem: 40-08-50N, Boylam: 044-23-45E, yükseklik: 865 m

Güncel hava durumu gözlemi

Rapor saat 05:30 UTC de 24 dakika önce yapıldı.
Rüzgar güney/güneydoğudan 5 kt
Sıcaklık 25°C
Nem 44%
Basınç 1013 hPa
Görüş mesafesi 10 km veya daha fazla

METAR: UDYZ 170530Z 15005KT 9999 NSC 25/12 Q1013 R09/000070 NOSIG

Saat: 09:54 (05:54 UTC)

Tahmin

Rapor saat 05:05 UTC de 49 dakika önce yapıldı.
Ayın 17'si saat 06 UTC'den ayın 18'si saat 06 UTC'ye kadar geçerli Tahmin
Rüzgar güney/güneybatıdan 6 kt
Görüş mesafesi 10 km veya daha fazla
4000 ft yükseklikte az bulutlu
Geçici
ayın 17'si saat 12 UTC'den ayın 17'si saat 22 UTC'ye kadar
Rüzgar kuzeydoğudan 16 kt ve 26 kt'a kadar ani rüzgarlar
4000 ft yükseklikte az bulutlu, Kümülonimbus.

TAF: UDYZ 170505Z 1706/1806 20006KT 9999 FEW040 TEMPO 1712/1722 04016G26KT FEW040CB

4.000'den fazla havaalanı için hava durumu gözlemleri ve tahminleri (METAR ve TAF raporları).

Kullanılabilir istasyonlar harita üzerinde sarı ve kırmızı noktalarla gösterilir.

İstasyonun adını görmek için fareyi noktanın üzerinde gezdirin.

Sonrasında hava gözlem ve tahminlerini görmek için tıklayın.

Haritayı değiştirmek için: yaklaştırmak için siyah artı işaretli yeşil düğmeye ve uzaklaştırmak için de eksi işaretli düğmeye hızla tıklayın; bitişik haritalar için yeşil okları kullanın.


METAR-TAF: